Es ist keine erhöhte Aufmerksamkeit aufgrund des Wetters notwendig.    Es gibt keine Warnungen.
Webcam Vorhersage DWD Regenradar Wetterlage NRW Blitze Wind GFS-Modell
webcam


Kleve - Düffelward SSO more information Kleve - Düffelward SSO


Goch more information Goch


Weitere Templates dieser Seite und andere Webseiten:

Meteotemplate

Awekas - Template

weather34 - Template

Wetter im Erzgebirge


te
World Weather Websites
Bo-Rox Wetter Topsites List
 

METAR-Meldungen aus der Umgebung

   
EDLV - Goch
Aktualisierung: 19-02-2020 22:20
Teilweise bewölkt  
Teilweise bewölkt  
   Wind: SSW 16.7 km/h
Wind: SSW 16.7 km/h
Temperatur: 6°C
Gefühlt: 3°C
Taupunkt: 2°C
Luftfeuchte: 76%
Luftdruck: 1019 hPa
Bewölkt: Teilweise bewölkt
Sichtbarkeit: More than 10 km
Bewölkung: Teilweise bewölkt 2500 ft
EDLV 192120Z 21009KT 9999 SCT025 06/02 Q1019
EDLV - Emmerich
Aktualisierung: 19-02-2020 22:20
Teilweise bewölkt  
Teilweise bewölkt  
   Wind: SSW 16.7 km/h
Wind: SSW 16.7 km/h
Temperatur: 6°C
Gefühlt: 3°C
Taupunkt: 2°C
Luftfeuchte: 76%
Luftdruck: 1019 hPa
Bewölkt: Teilweise bewölkt
Sichtbarkeit: More than 10 km
Bewölkung: Teilweise bewölkt 2500 ft
EDLV 192120Z 21009KT 9999 SCT025 06/02 Q1019
EHDL - Nijmegen
Aktualisierung: 19-02-2020 22:25
Leichter Nieselregen, Bewölkt  
Leichter Nieselregen, Bewölkt  
   Wind: SSW 20.4 km/h
Wind: SSW 20.4 km/h
Temperatur: 5°C
Gefühlt: 1°C
Taupunkt: 2°C
Luftfeuchte: 81%
Luftdruck: 1018 hPa
Bewölkt: Bewölkt
Sichtbarkeit: More than 10 km
Bewölkung: Teilweise bewölkt 1900 ft,
Bewölkt 2600 ft
EHDL 192125Z AUTO 21011KT 160V260 9999 -DZ SCT019 OVC026 05/02 Q1018 WHT
EHDL - Arnhem
Aktualisierung: 19-02-2020 22:25
Leichter Nieselregen, Bewölkt  
Leichter Nieselregen, Bewölkt  
   Wind: SSW 20.4 km/h
Wind: SSW 20.4 km/h
Temperatur: 5°C
Gefühlt: 1°C
Taupunkt: 2°C
Luftfeuchte: 81%
Luftdruck: 1018 hPa
Bewölkt: Bewölkt
Sichtbarkeit: More than 10 km
Bewölkung: Teilweise bewölkt 1900 ft,
Bewölkt 2600 ft
EHDL 192125Z AUTO 21011KT 160V260 9999 -DZ SCT019 OVC026 05/02 Q1018 WHT
EDLV - Kalkar
Aktualisierung: 19-02-2020 22:20
Teilweise bewölkt  
Teilweise bewölkt  
   Wind: SSW 16.7 km/h
Wind: SSW 16.7 km/h
Temperatur: 6°C
Gefühlt: 3°C
Taupunkt: 2°C
Luftfeuchte: 76%
Luftdruck: 1019 hPa
Bewölkt: Teilweise bewölkt
Sichtbarkeit: More than 10 km
Bewölkung: Teilweise bewölkt 2500 ft
EDLV 192120Z 21009KT 9999 SCT025 06/02 Q1019
 

Script entwickelt von  Saratoga-weather.org Angepasst für das Template von  Weerstation Leuven

Sie finden Wetter-Infos dieser Station auch auf:

UK Metoffice

European Weather Network

WeatherCloud

Weather Underground

Germany Weather Network

AWEKAS

Neuwetter

Wettersektor

Von uns verwendete Ausrüstung:

Wetterstation
Davis Vantage Pro2

Wetterprogramm
Meteobridge

WetterComputer
Computer

Davis Vantage Pro2

Meteobridge

Computer